Ana Sayfa
METAR-TAF:

METAR-TAF

Havaalanları :

Princeton, İngiliz Kolombiyası, Kanada

Enlem: 49-28N, Boylam: 120-31W, yükseklik: 700 m

Güncel hava durumu gözlemi

Rapor saat 21:27 UTC de 10 dakika önce yapıldı.
Rüzgar güneybatıdan 10 kt ve 16 kt'a kadar ani rüzgarlar
Sıcaklık 3°C
Nem 44%
Basınç 1029 hPa
Görüş mesafesi: 24.1 km
4400 ft yükseklikte az bulutlu
4800 ft yükseklikte parçalı çok bulutlu
7000 ft yükseklikte parçalı çok bulutlu
17000 ft yükseklikte çok bulutlu

METAR: CYDC 242127Z 23010G16KT 15SM FEW044 BKN048 BKN070 OVC170 03/M08 A3040 RMK CF1SC4AC2AS1 WSHFT 2120 SLP322

Saat: 13:37 (21:37 UTC)


TAF: eksik

4.000'den fazla havaalanı için hava durumu gözlemleri ve tahminleri (METAR ve TAF raporları).

Kullanılabilir istasyonlar harita üzerinde sarı ve kırmızı noktalarla gösterilir.

İstasyonun adını görmek için fareyi noktanın üzerinde gezdirin.

Sonrasında hava gözlem ve tahminlerini görmek için tıklayın.

Haritayı değiştirmek için: yaklaştırmak için siyah artı işaretli yeşil düğmeye ve uzaklaştırmak için de eksi işaretli düğmeye hızla tıklayın; bitişik haritalar için yeşil okları kullanın.


METAR-TAF: